Time;durP1;ratioP1;P1;durP2;ratioP2;P2;SDS_P1;SDS_P2;PMS_P1;PMS_P2;Temp;Humidity;BMP_temperature;BMP_pressure;BME280_temperature;BME280_humidity;BME280_pressure;Samples;Min_cycle;Max_cycle;Signal;HPM_P1;HPM_P2
2021/12/24 00:01:57;;;;;;;43.17;19.13;;;7.20;99.90;;;;;;6154526;23;20013;-76
2021/12/24 00:04:23;;;;;;;39.35;19.05;;;7.20;99.90;;;;;;6154885;23;20014;-75
2021/12/24 00:06:51;;;;;;;35.20;17.27;;;7.20;99.90;;;;;;6155045;23;20024;-76
2021/12/24 00:09:24;;;;;;;38.95;18.55;;;7.20;99.90;;;;;;6154896;23;20347;-76
2021/12/24 00:11:56;;;;;;;34.78;19.00;;;7.30;99.90;;;;;;6155994;23;20060;-76
2021/12/24 00:14:24;;;;;;;41.25;19.80;;;7.20;99.90;;;;;;6157637;23;20009;-76
2021/12/24 00:16:55;;;;;;;41.13;19.60;;;7.30;99.90;;;;;;6158007;23;20435;-75
2021/12/24 00:19:37;;;;;;;47.03;20.33;;;7.30;99.90;;;;;;6158097;23;20053;-76
2021/12/24 00:35:57;;;;;;;44.03;20.00;;;7.20;99.90;;;;;;6135914;23;20013;-76
2021/12/24 00:38:25;;;;;;;40.13;19.83;;;7.20;99.90;;;;;;6156373;23;20498;-76
2021/12/24 00:40:52;;;;;;;45.90;20.65;;;7.30;99.90;;;;;;6158018;23;20002;-76
2021/12/24 00:43:21;;;;;;;36.90;19.42;;;7.20;99.90;;;;;;6157830;23;20088;-75
2021/12/24 00:45:51;;;;;;;36.80;19.08;;;7.30;99.90;;;;;;6156280;23;20005;-76
2021/12/24 00:48:20;;;;;;;45.30;19.63;;;7.30;99.90;;;;;;6157756;23;20016;-76
2021/12/24 00:56:15;;;;;;;37.33;19.08;;;7.20;99.90;;;;;;6157694;23;20088;-76
2021/12/24 00:58:43;;;;;;;36.80;18.73;;;7.20;99.90;;;;;;6158176;23;20020;-76
2021/12/24 01:01:13;;;;;;;33.30;17.35;;;7.20;99.90;;;;;;6157674;23;20006;-76
2021/12/24 01:03:41;;;;;;;37.78;18.23;;;7.20;99.90;;;;;;6157680;23;20014;-76
2021/12/24 01:06:07;;;;;;;45.13;20.27;;;7.10;99.90;;;;;;6157679;23;20462;-76
2021/12/24 01:08:34;;;;;;;54.33;22.60;;;7.20;99.90;;;;;;6157608;23;20010;-75
2021/12/24 01:11:04;;;;;;;66.13;24.60;;;7.20;99.90;;;;;;6157630;23;20005;-76
2021/12/24 01:13:31;;;;;;;54.45;23.05;;;7.20;99.90;;;;;;6157593;23;20020;-76
2021/12/24 01:16:03;;;;;;;36.90;18.35;;;7.20;99.90;;;;;;6157577;23;20076;-76
2021/12/24 01:19:09;;;;;;;35.88;17.25;;;7.20;99.90;;;;;;6156085;23;20067;-76
2021/12/24 01:24:09;;;;;;;33.47;16.52;;;7.20;99.90;;;;;;6155789;23;20028;-76
2021/12/24 01:27:06;;;;;;;34.22;17.65;;;7.10;99.90;;;;;;6155537;23;20432;-76
2021/12/24 01:37:58;;;;;;;39.97;17.13;;;7.30;99.90;;;;;;6155912;23;20021;-76
2021/12/24 01:43:12;;;;;;;37.10;16.35;;;7.30;99.90;;;;;;6155765;23;20451;-76
2021/12/24 01:45:39;;;;;;;30.00;15.77;;;7.30;99.90;;;;;;6131222;23;20105;-76
2021/12/24 01:48:09;;;;;;;35.17;14.77;;;7.30;99.90;;;;;;6155825;23;20016;-76
2021/12/24 01:50:39;;;;;;;27.60;12.73;;;7.30;99.90;;;;;;6155645;23;20006;-75
2021/12/24 01:53:08;;;;;;;23.75;12.82;;;7.30;99.90;;;;;;6155851;23;20088;-76
2021/12/24 01:55:38;;;;;;;24.00;11.65;;;7.40;99.90;;;;;;6157149;23;20006;-75
2021/12/24 01:58:05;;;;;;;22.02;11.70;;;7.40;99.90;;;;;;6131276;23;20013;-76
2021/12/24 02:00:39;;;;;;;19.75;8.45;;;7.40;99.90;;;;;;6131327;23;20013;-76
2021/12/24 02:03:07;;;;;;;;;;;7.40;99.90;;;;;;6131560;23;20018;-76
2021/12/24 02:05:34;;;;;;;11.50;6.53;;;7.40;99.90;;;;;;6155548;23;19943;-76
2021/12/24 02:08:02;;;;;;;14.57;6.32;;;7.50;99.90;;;;;;6155532;23;20141;-76
2021/12/24 02:10:29;;;;;;;9.02;5.38;;;7.50;99.90;;;;;;6157038;23;20010;-76
2021/12/24 02:12:57;;;;;;;12.98;4.45;;;7.60;99.90;;;;;;6155539;23;20431;-75
2021/12/24 02:15:45;;;;;;;10.00;4.25;;;7.60;99.90;;;;;;6131857;23;20041;-75
2021/12/24 02:29:14;;;;;;;5.90;2.72;;;7.70;99.90;;;;;;6156909;23;20017;-76
2021/12/24 02:31:40;;;;;;;6.45;3.03;;;7.70;99.90;;;;;;6157333;23;20028;-76
2021/12/24 02:34:07;;;;;;;5.70;2.75;;;7.70;99.90;;;;;;6156798;23;20376;-76
2021/12/24 02:36:34;;;;;;;8.48;3.38;;;7.70;99.90;;;;;;6156300;23;20045;-76
2021/12/24 02:39:01;;;;;;;6.80;3.33;;;7.70;99.90;;;;;;6155248;23;20009;-75
2021/12/24 02:41:28;;;;;;;4.70;2.40;;;7.70;99.90;;;;;;6155350;23;20086;-76
2021/12/24 02:43:54;;;;;;;7.07;3.10;;;7.70;99.90;;;;;;6155399;23;20068;-76
2021/12/24 02:46:33;;;;;;;8.93;2.83;;;7.70;99.90;;;;;;6156672;23;20088;-76
2021/12/24 02:49:07;;;;;;;5.47;3.10;;;7.70;99.90;;;;;;6155457;23;20005;-76
2021/12/24 02:54:21;;;;;;;5.70;2.67;;;7.70;99.90;;;;;;6155179;23;20438;-76
2021/12/24 02:56:52;;;;;;;6.85;3.22;;;7.70;99.90;;;;;;6154893;23;20465;-76
2021/12/24 02:59:25;;;;;;;5.20;2.97;;;7.70;99.90;;;;;;6155195;23;20084;-76
2021/12/24 03:01:56;;;;;;;7.93;3.03;;;7.70;99.90;;;;;;6156591;23;20040;-76
2021/12/24 03:04:24;;;;;;;7.40;3.33;;;7.70;99.90;;;;;;6130584;23;20017;-76
2021/12/24 03:06:53;;;;;;;6.88;3.28;;;7.70;99.90;;;;;;6156586;23;20012;-76
2021/12/24 03:09:22;;;;;;;6.53;3.05;;;7.70;99.90;;;;;;6130499;23;20033;-76
2021/12/24 03:11:51;;;;;;;7.40;2.90;;;7.70;99.90;;;;;;6154751;23;20009;-76
2021/12/24 03:14:20;;;;;;;3.85;2.70;;;7.70;99.90;;;;;;6154969;23;20033;-76
2021/12/24 03:16:56;;;;;;;6.22;3.17;;;7.80;99.90;;;;;;6154789;23;20010;-76
2021/12/24 03:19:28;;;;;;;8.27;4.00;;;7.80;99.90;;;;;;6155059;23;20498;-76
2021/12/24 03:22:00;;;;;;;11.20;3.78;;;7.80;99.90;;;;;;6154866;23;20407;-76
2021/12/24 03:26:57;;;;;;;6.53;3.33;;;7.90;99.90;;;;;;6154834;23;20013;-76
2021/12/24 03:29:23;;;;;;;7.75;3.33;;;7.90;99.90;;;;;;6154900;23;20014;-76
2021/12/24 03:31:50;;;;;;;6.55;3.22;;;7.90;99.90;;;;;;6156397;23;20006;-76
2021/12/24 03:34:21;;;;;;;9.10;3.38;;;8.00;99.90;;;;;;6154796;23;20015;-76
2021/12/24 03:36:50;;;;;;;8.20;3.35;;;8.00;99.90;;;;;;6155721;23;20028;-76
2021/12/24 03:39:23;;;;;;;7.60;3.70;;;8.00;99.90;;;;;;6156518;23;19998;-76
2021/12/24 03:41:51;;;;;;;7.35;3.78;;;8.10;99.90;;;;;;6154934;23;20017;-76
2021/12/24 03:44:19;;;;;;;5.45;2.97;;;8.10;99.90;;;;;;6154659;23;20049;-76
2021/12/24 03:49:39;;;;;;;5.53;3.47;;;8.20;99.90;;;;;;6156333;23;20010;-76
2021/12/24 03:54:55;;;;;;;11.80;3.80;;;8.10;99.90;;;;;;6154738;23;20351;-76
2021/12/24 03:57:35;;;;;;;7.75;4.00;;;8.20;99.90;;;;;;6156137;23;20010;-76
2021/12/24 04:00:30;;;;;;;8.07;3.72;;;8.10;99.90;;;;;;6110383;23;20416;-76
2021/12/24 04:03:19;;;;;;;5.15;3.55;;;8.10;99.90;;;;;;6155883;23;20017;-76
2021/12/24 04:06:22;;;;;;;7.50;3.67;;;8.00;99.90;;;;;;6124603;23;20028;-76
2021/12/24 04:09:09;;;;;;;8.95;4.22;;;8.00;99.90;;;;;;6124949;23;20512;-76
2021/12/24 04:11:47;;;;;;;7.45;3.88;;;8.00;99.90;;;;;;6099767;23;20029;-76
2021/12/24 04:14:14;;;;;;;8.95;3.95;;;8.00;99.90;;;;;;6124198;23;20424;-76
2021/12/24 04:16:41;;;;;;;9.95;4.05;;;7.90;99.90;;;;;;6124137;23;20470;-76
2021/12/24 04:27:10;;;;;;;9.30;4.20;;;7.90;99.90;;;;;;6099803;23;20006;-76
2021/12/24 04:29:37;;;;;;;9.75;4.25;;;7.80;99.90;;;;;;6075570;23;20016;-76
2021/12/24 04:32:15;;;;;;;9.90;4.32;;;7.80;99.90;;;;;;6124036;23;20347;-77
2021/12/24 04:35:18;;;;;;;11.23;4.30;;;7.80;99.90;;;;;;6103463;23;20065;-77
2021/12/24 04:51:27;;;;;;;10.70;4.75;;;7.60;99.90;;;;;;6156329;23;20056;-77
2021/12/24 05:02:42;;;;;;;11.25;4.28;;;7.50;99.90;;;;;;6157570;23;20006;-76
2021/12/24 05:05:38;;;;;;;11.55;4.60;;;7.40;99.90;;;;;;6156471;23;20017;-76
2021/12/24 05:10:40;;;;;;;8.95;4.75;;;7.40;99.90;;;;;;6157771;23;20048;-77
2021/12/24 05:13:12;;;;;;;8.35;4.18;;;7.30;99.90;;;;;;6156147;23;20080;-76
2021/12/24 05:16:05;;;;;;;10.02;4.60;;;7.30;99.90;;;;;;6156800;23;20021;-76
2021/12/24 05:22:08;;;;;;;8.80;4.35;;;7.30;99.90;;;;;;6129961;23;20129;-75
2021/12/24 05:24:38;;;;;;;15.48;4.85;;;7.20;99.90;;;;;;6157578;23;20017;-74
2021/12/24 05:27:05;;;;;;;9.88;5.07;;;7.20;99.90;;;;;;6131428;23;20432;-74
2021/12/24 05:29:32;;;;;;;13.23;4.93;;;7.20;99.90;;;;;;6157413;23;20431;-74
2021/12/24 05:32:00;;;;;;;12.15;5.95;;;7.10;99.90;;;;;;6157552;23;20495;-74
2021/12/24 05:34:26;;;;;;;8.98;4.30;;;7.10;99.90;;;;;;6155938;23;20080;-74
2021/12/24 05:36:56;;;;;;;10.35;5.20;;;7.10;99.90;;;;;;6156983;23;20048;-74
2021/12/24 05:39:22;;;;;;;8.00;4.10;;;7.10;99.90;;;;;;6157431;23;20012;-74
2021/12/24 05:41:52;;;;;;;9.73;4.55;;;7.10;99.90;;;;;;6157306;23;20012;-74
2021/12/24 05:44:20;;;;;;;10.30;5.15;;;7.10;99.90;;;;;;6155776;23;20489;-74
2021/12/24 05:46:53;;;;;;;8.73;4.28;;;7.20;99.90;;;;;;6157208;23;20012;-74
2021/12/24 05:49:41;;;;;;;10.27;4.85;;;7.30;99.90;;;;;;6156859;23;20092;-74
2021/12/24 05:52:27;;;;;;;8.15;5.03;;;7.30;99.90;;;;;;6156499;23;20020;-73
2021/12/24 05:55:05;;;;;;;10.93;4.15;;;7.30;99.90;;;;;;6157294;23;20005;-73
2021/12/24 05:57:32;;;;;;;9.82;4.60;;;7.40;99.90;;;;;;6157213;23;20439;-73
2021/12/24 05:59:59;;;;;;;14.18;5.22;;;7.40;99.90;;;;;;6157207;23;20009;-73
2021/12/24 06:02:26;;;;;;;12.98;4.93;;;7.40;99.90;;;;;;6157428;23;20092;-74
2021/12/24 06:04:52;;;;;;;8.15;4.18;;;7.50;99.90;;;;;;6157116;23;20005;-74
2021/12/24 06:07:19;;;;;;;8.35;4.35;;;7.50;99.90;;;;;;6157038;23;20016;-74
2021/12/24 06:09:45;;;;;;;7.95;4.38;;;7.60;99.90;;;;;;6157509;23;20029;-74
2021/12/24 06:12:12;;;;;;;8.60;4.15;;;7.50;99.90;;;;;;6155221;23;20009;-74
2021/12/24 06:14:40;;;;;;;10.23;4.38;;;7.60;99.90;;;;;;6156966;23;20044;-74
2021/12/24 06:17:14;;;;;;;15.32;4.45;;;7.60;99.90;;;;;;6157320;23;20029;-73
2021/12/24 06:19:42;;;;;;;10.70;4.03;;;7.60;99.90;;;;;;6133310;23;20091;-73
2021/12/24 06:22:09;;;;;;;10.88;3.60;;;7.70;99.90;;;;;;6156953;23;20047;-74
2021/12/24 06:24:36;;;;;;;7.15;3.88;;;7.70;99.90;;;;;;6156833;23;20016;-73
2021/12/24 06:27:03;;;;;;;7.82;4.03;;;7.70;99.90;;;;;;6156806;23;20037;-74
2021/12/24 06:29:31;;;;;;;9.30;4.65;;;7.70;99.90;;;;;;6155797;23;20010;-74
2021/12/24 06:31:58;;;;;;;8.90;4.07;;;7.70;99.90;;;;;;6155361;23;20400;-73
2021/12/24 06:34:26;;;;;;;8.85;4.40;;;7.80;99.90;;;;;;6156698;23;20419;-73
2021/12/24 06:36:53;;;;;;;10.00;3.95;;;7.80;99.90;;;;;;6156501;23;20436;-74
2021/12/24 06:39:20;;;;;;;9.50;4.45;;;7.90;99.90;;;;;;6157207;23;20141;-74
2021/12/24 06:41:47;;;;;;;11.35;4.43;;;7.90;99.90;;;;;;6156720;23;20455;-74
2021/12/24 06:44:13;;;;;;;11.77;4.68;;;7.90;99.90;;;;;;6156735;23;20068;-75
2021/12/24 06:46:43;;;;;;;8.95;4.07;;;7.90;99.90;;;;;;6155112;23;20016;-74
2021/12/24 06:49:10;;;;;;;8.68;4.00;;;8.00;99.90;;;;;;6156478;23;20454;-74
2021/12/24 06:51:38;;;;;;;10.50;3.75;;;8.00;99.90;;;;;;6156778;23;20013;-74
2021/12/24 06:54:05;;;;;;;10.93;4.43;;;8.10;99.90;;;;;;6156950;23;19997;-75
2021/12/24 06:56:32;;;;;;;7.45;3.65;;;8.20;99.90;;;;;;6155053;23;20313;-74
2021/12/24 06:58:59;;;;;;;9.60;4.15;;;8.10;99.90;;;;;;6154898;23;20010;-74
2021/12/24 07:01:25;;;;;;;5.53;3.25;;;8.20;99.90;;;;;;6154948;23;20344;-74
2021/12/24 07:03:55;;;;;;;9.05;4.03;;;8.20;99.90;;;;;;6156493;23;20045;-75
2021/12/24 07:06:22;;;;;;;9.93;4.65;;;8.30;99.90;;;;;;6156406;23;20018;-74
2021/12/24 07:08:49;;;;;;;9.07;3.75;;;8.30;99.90;;;;;;6156545;23;20312;-73
2021/12/24 07:11:16;;;;;;;7.68;3.88;;;8.40;99.90;;;;;;6156320;23;20028;-73
2021/12/24 07:13:42;;;;;;;42.17;14.48;;;8.50;99.90;;;;;;6156337;23;20009;-73
2021/12/24 07:16:09;;;;;;;17.60;7.63;;;8.50;99.90;;;;;;6156681;23;20457;-73
2021/12/24 07:18:37;;;;;;;14.63;6.50;;;8.50;99.90;;;;;;6156278;23;20293;-73
2021/12/24 07:21:07;;;;;;;9.68;4.80;;;8.50;99.90;;;;;;6154679;23;20010;-74
2021/12/24 07:23:33;;;;;;;11.13;4.55;;;8.50;99.90;;;;;;6156181;23;20025;-73
2021/12/24 07:26:01;;;;;;;11.27;4.43;;;8.50;99.90;;;;;;6156329;23;20016;-73
2021/12/24 07:28:27;;;;;;;11.13;4.38;;;8.40;99.90;;;;;;6156452;23;20032;-73
2021/12/24 07:30:55;;;;;;;8.10;4.45;;;8.40;99.90;;;;;;6156302;23;20006;-73
2021/12/24 07:33:21;;;;;;;9.48;4.68;;;8.40;99.90;;;;;;6156251;23;20014;-73
2021/12/24 07:35:47;;;;;;;12.32;4.43;;;8.40;99.90;;;;;;6155845;23;20013;-74
2021/12/24 07:38:14;;;;;;;8.80;4.45;;;8.50;99.90;;;;;;6156320;23;20424;-74
2021/12/24 07:40:46;;;;;;;10.40;4.30;;;8.50;99.90;;;;;;6156375;23;20009;-73
2021/12/24 07:43:13;;;;;;;9.60;4.03;;;8.60;99.90;;;;;;6155961;23;20040;-73
2021/12/24 07:45:41;;;;;;;13.35;4.75;;;8.70;99.90;;;;;;6156234;23;20064;-73
2021/12/24 07:48:15;;;;;;;18.58;6.65;;;8.80;99.90;;;;;;6155547;23;20414;-73
2021/12/24 07:53:15;;;;;;;37.10;12.38;;;9.00;99.90;;;;;;6154736;23;20443;-73
2021/12/24 07:55:42;;;;;;;37.00;12.65;;;9.10;99.90;;;;;;6154651;23;20060;-73
2021/12/24 07:58:10;;;;;;;31.92;10.77;;;9.20;99.90;;;;;;6154799;23;20040;-73
2021/12/24 08:00:39;;;;;;;30.13;10.38;;;9.30;99.90;;;;;;6154798;23;20009;-72
2021/12/24 08:03:06;;;;;;;21.75;8.02;;;9.40;99.90;;;;;;6154704;23;20048;-72
2021/12/24 08:05:35;;;;;;;19.00;6.72;;;9.50;99.90;;;;;;6154586;23;20002;-72
2021/12/24 08:08:02;;;;;;;19.52;7.38;;;9.60;99.90;;;;;;6154564;23;20140;-73
2021/12/24 08:10:31;;;;;;;19.83;5.90;;;9.80;99.90;;;;;;6153068;23;20400;-72
2021/12/24 08:12:57;;;;;;;16.48;4.88;;;9.80;99.90;;;;;;6154824;23;20016;-72
2021/12/24 08:15:24;;;;;;;11.57;5.03;;;9.90;99.90;;;;;;6154717;23;20128;-72
2021/12/24 08:17:50;;;;;;;11.43;4.00;;;10.00;99.90;;;;;;6154694;23;20097;-72
2021/12/24 08:20:22;;;;;;;10.10;3.75;;;10.10;99.90;;;;;;6154711;23;20452;-72
2021/12/24 08:22:50;;;;;;;8.18;3.95;;;10.20;99.90;;;;;;6153285;23;20035;-73
2021/12/24 08:25:16;;;;;;;11.00;2.90;;;10.20;99.90;;;;;;6153514;23;20021;-72
2021/12/24 08:27:43;;;;;;;7.05;3.33;;;10.30;99.90;;;;;;6154675;23;20036;-72
2021/12/24 08:30:10;;;;;;;12.05;2.83;;;10.40;99.90;;;;;;6154537;23;20013;-72
2021/12/24 08:32:40;;;;;;;5.32;2.50;;;10.50;99.90;;;;;;6154764;23;20001;-72
2021/12/24 08:35:09;;;;;;;9.88;3.25;;;10.50;99.90;;;;;;6156030;23;20009;-72
2021/12/24 08:37:36;;;;;;;7.75;3.20;;;10.60;99.90;;;;;;6157391;23;20068;-72
2021/12/24 08:40:05;;;;;;;7.60;3.20;;;10.60;99.90;;;;;;6156366;23;20048;-72
2021/12/24 08:42:31;;;;;;;5.57;2.78;;;10.50;99.90;;;;;;6157609;23;20317;-71
2021/12/24 08:44:58;;;;;;;5.50;3.08;;;10.60;99.90;;;;;;6158144;23;20083;-72
2021/12/24 08:47:24;;;;;;;6.00;2.88;;;10.60;99.90;;;;;;6157774;23;20428;-72
2021/12/24 08:49:51;;;;;;;6.32;3.00;;;10.70;99.90;;;;;;6157618;23;20016;-72
2021/12/24 08:52:17;;;;;;;8.05;3.08;;;10.70;99.90;;;;;;6157537;23;20004;-73
2021/12/24 08:54:44;;;;;;;9.07;3.45;;;10.80;99.90;;;;;;6157596;23;20009;-72
2021/12/24 08:57:10;;;;;;;13.88;5.07;;;10.80;99.90;;;;;;6157745;23;20005;-72
2021/12/24 08:59:37;;;;;;;8.93;3.33;;;10.90;99.90;;;;;;6156193;23;20041;-72
2021/12/24 09:02:03;;;;;;;3.85;2.47;;;10.90;99.90;;;;;;6157612;23;20331;-72
2021/12/24 09:04:30;;;;;;;3.28;2.08;;;11.00;99.90;;;;;;6157472;23;20021;-72
2021/12/24 09:06:57;;;;;;;10.45;2.90;;;11.10;99.90;;;;;;6157387;23;20008;-72
2021/12/24 09:09:23;;;;;;;3.80;2.15;;;11.20;99.90;;;;;;6157835;23;20013;-73
2021/12/24 09:11:49;;;;;;;10.10;2.50;;;11.40;99.90;;;;;;6157603;23;20404;-72
2021/12/24 09:14:18;;;;;;;6.30;3.17;;;11.40;99.90;;;;;;6157589;23;20013;-72
2021/12/24 09:16:48;;;;;;;5.97;2.17;;;11.60;99.90;;;;;;6157484;23;20450;-72
2021/12/24 09:19:20;;;;;;;5.15;2.22;;;11.70;99.90;;;;;;6155780;23;20016;-73
2021/12/24 09:21:47;;;;;;;4.72;2.30;;;11.90;99.90;;;;;;6156836;23;20010;-72
2021/12/24 09:24:13;;;;;;;3.83;2.50;;;11.80;99.90;;;;;;6157155;23;20019;-73
2021/12/24 09:26:40;;;;;;;11.77;2.42;;;11.90;99.90;;;;;;6157057;23;20006;-73
2021/12/24 09:29:09;;;;;;;2.42;2.00;;;12.00;99.90;;;;;;6157681;23;20447;-73
2021/12/24 09:31:37;;;;;;;5.05;2.15;;;12.10;99.90;;;;;;6155544;23;20423;-73
2021/12/24 09:34:04;;;;;;;3.92;2.10;;;12.10;99.90;;;;;;6157742;23;20006;-73
2021/12/24 09:36:31;;;;;;;5.20;2.20;;;12.10;99.90;;;;;;6156976;23;20404;-73
2021/12/24 09:39:05;;;;;;;5.70;2.33;;;12.10;99.90;;;;;;6157603;23;20025;-73
2021/12/24 09:41:32;;;;;;;4.82;2.65;;;12.20;99.90;;;;;;6157305;23;20386;-73
2021/12/24 09:44:00;;;;;;;4.25;2.17;;;12.20;99.90;;;;;;6156912;23;20037;-73
2021/12/24 09:46:28;;;;;;;2.78;2.10;;;12.20;99.90;;;;;;6156263;23;20009;-73
2021/12/24 09:48:56;;;;;;;5.65;2.17;;;12.30;99.90;;;;;;6157170;23;20379;-73
2021/12/24 09:51:26;;;;;;;4.68;2.40;;;12.40;99.90;;;;;;6157370;23;20001;-73
2021/12/24 09:53:56;;;;;;;4.72;2.03;;;12.40;99.90;;;;;;6157375;23;20017;-73
2021/12/24 09:56:23;;;;;;;3.78;2.28;;;12.40;99.90;;;;;;6157027;23;20009;-73
2021/12/24 09:58:49;;;;;;;3.38;1.88;;;12.40;99.90;;;;;;6156811;23;20006;-73
2021/12/24 10:01:43;;;;;;;3.35;1.55;;;12.50;99.90;;;;;;6131049;23;20462;-73
2021/12/24 10:04:17;;;;;;;4.72;1.90;;;12.50;99.90;;;;;;6155701;23;20072;-73
2021/12/24 10:07:05;;;;;;;2.30;1.83;;;12.60;99.90;;;;;;6130961;23;20084;-73
2021/12/24 10:09:44;;;;;;;3.13;2.30;;;12.60;99.90;;;;;;6157074;23;20040;-73
2021/12/24 10:12:19;;;;;;;4.60;2.53;;;12.60;99.90;;;;;;6157149;23;20009;-73
2021/12/24 10:14:59;;;;;;;4.78;2.13;;;12.50;99.90;;;;;;6156981;23;20013;-73
2021/12/24 10:17:31;;;;;;;3.22;2.30;;;12.50;99.90;;;;;;6156879;23;20060;-74
2021/12/24 10:20:15;;;;;;;9.80;2.67;;;12.50;99.90;;;;;;6157007;23;20021;-74
2021/12/24 10:22:45;;;;;;;8.32;2.92;;;12.60;99.90;;;;;;6156997;23;20068;-74
2021/12/24 10:25:14;;;;;;;3.65;2.17;;;12.60;99.90;;;;;;6155448;23;20019;-74
2021/12/24 10:27:42;;;;;;;4.97;2.28;;;12.70;99.90;;;;;;6156920;23;20005;-74
2021/12/24 10:30:27;;;;;;;4.38;2.80;;;12.80;99.90;;;;;;6130704;23;20377;-74
2021/12/24 10:32:55;;;;;;;;;;;12.90;99.90;;;;;;6157582;23;20013;-74
2021/12/24 10:35:28;;;;;;;8.75;3.65;;;13.10;99.90;;;;;;6156771;23;20370;-74
2021/12/24 10:38:16;;;;;;;5.43;2.88;;;13.10;99.90;;;;;;6130778;23;20021;-74
2021/12/24 10:40:49;;;;;;;8.55;2.78;;;13.10;99.90;;;;;;6157258;23;20009;-74
2021/12/24 10:43:37;;;;;;;4.75;2.63;;;13.00;99.90;;;;;;6157336;23;20393;-74
2021/12/24 10:46:17;;;;;;;10.38;2.17;;;13.00;99.90;;;;;;6156654;23;20010;-74
2021/12/24 10:49:03;;;;;;;3.40;1.98;;;13.00;99.90;;;;;;6156850;23;20012;-74
2021/12/24 10:54:15;;;;;;;5.07;1.92;;;12.90;99.90;;;;;;6156283;23;20013;-74
2021/12/24 10:56:42;;;;;;;3.47;1.88;;;12.90;99.90;;;;;;6156639;23;20009;-74
2021/12/24 10:59:08;;;;;;;2.33;1.40;;;13.00;99.90;;;;;;6156584;23;20399;-75
2021/12/24 11:01:35;;;;;;;2.45;1.40;;;13.10;99.90;;;;;;6130559;23;20033;-74
2021/12/24 11:04:01;;;;;;;4.63;1.50;;;13.00;99.90;;;;;;6156413;23;20104;-74
2021/12/24 11:06:32;;;;;;;2.20;1.42;;;13.00;99.90;;;;;;6156521;23;20427;-74
2021/12/24 11:08:59;;;;;;;2.78;1.77;;;13.10;99.90;;;;;;6156475;23;20010;-75
2021/12/24 11:11:35;;;;;;;8.90;3.80;;;13.10;99.90;;;;;;6154241;23;20045;-75
2021/12/24 11:14:03;;;;;;;4.50;2.60;;;13.10;99.90;;;;;;6128686;23;20339;-75
2021/12/24 11:16:32;;;;;;;2.67;1.60;;;13.10;99.90;;;;;;6156068;23;20005;-75
2021/12/24 11:19:02;;;;;;;1.80;1.35;;;13.00;99.90;;;;;;6156214;23;20494;-75
2021/12/24 11:21:31;;;;;;;2.03;1.27;;;13.10;99.90;;;;;;6130054;23;20016;-75
2021/12/24 11:23:57;;;;;;;2.38;1.60;;;13.10;99.90;;;;;;6130119;23;20021;-75
2021/12/24 11:26:28;;;;;;;2.28;1.45;;;13.10;99.90;;;;;;6156172;23;20001;-75
2021/12/24 11:28:55;;;;;;;5.78;1.70;;;13.10;99.90;;;;;;6154765;23;20013;-75
2021/12/24 11:31:27;;;;;;;2.22;1.50;;;13.20;99.90;;;;;;6154647;23;20016;-73
2021/12/24 11:33:57;;;;;;;2.95;1.70;;;13.10;99.90;;;;;;6156086;23;20060;-73
2021/12/24 11:36:28;;;;;;;2.78;1.67;;;13.10;99.90;;;;;;6154262;23;20025;-73
2021/12/24 11:39:06;;;;;;;2.25;1.55;;;13.20;99.90;;;;;;6154575;23;20009;-74
2021/12/24 11:41:33;;;;;;;2.20;1.60;;;13.20;99.90;;;;;;6156278;23;20344;-73
2021/12/24 11:44:06;;;;;;;1.48;1.30;;;13.20;99.90;;;;;;6155815;23;20325;-76
2021/12/24 11:46:37;;;;;;;4.65;1.83;;;13.30;99.90;;;;;;6156060;23;20076;-74
2021/12/24 11:49:06;;;;;;;2.60;1.48;;;13.30;99.90;;;;;;6155975;23;20010;-77
2021/12/24 11:51:40;;;;;;;2.92;1.55;;;13.40;99.90;;;;;;6156056;23;20001;-76
2021/12/24 11:54:08;;;;;;;2.25;1.77;;;13.40;99.90;;;;;;6156102;23;20060;-76
2021/12/24 11:56:53;;;;;;;3.00;1.67;;;13.40;99.90;;;;;;6156207;23;20339;-76
2021/12/24 11:59:40;;;;;;;2.50;1.70;;;13.40;99.90;;;;;;6155761;23;20068;-76
2021/12/24 12:02:07;;;;;;;1.55;1.27;;;13.50;99.90;;;;;;6154526;23;20038;-76
2021/12/24 12:04:34;;;;;;;4.38;1.63;;;13.60;99.90;;;;;;6155957;23;20014;-75
2021/12/24 12:07:18;;;;;;;2.65;1.48;;;13.70;99.90;;;;;;6156050;23;20005;-76
2021/12/24 12:09:46;;;;;;;2.50;1.52;;;13.70;99.90;;;;;;6155860;23;20005;-76
2021/12/24 12:12:16;;;;;;;4.25;2.08;;;13.80;99.90;;;;;;6155002;23;20001;-76
2021/12/24 12:14:42;;;;;;;3.33;1.90;;;13.90;99.90;;;;;;6155637;23;20010;-75
2021/12/24 12:17:21;;;;;;;3.45;1.30;;;14.00;99.90;;;;;;6154295;23;20089;-75
2021/12/24 12:19:59;;;;;;;1.50;1.05;;;14.10;99.90;;;;;;6155886;23;20065;-75
2021/12/24 12:22:54;;;;;;;1.88;1.30;;;14.30;99.90;;;;;;6154223;23;20068;-76
2021/12/24 12:25:34;;;;;;;1.55;1.30;;;14.30;99.90;;;;;;6153895;23;20096;-76
2021/12/24 12:28:09;;;;;;;2.13;1.17;;;14.30;99.90;;;;;;6155629;23;20080;-73
2021/12/24 12:30:42;;;;;;;5.68;1.40;;;14.30;99.90;;;;;;6155749;23;20018;-76
2021/12/24 12:33:14;;;;;;;2.95;1.48;;;14.50;99.90;;;;;;6155932;23;20056;-76
2021/12/24 12:35:40;;;;;;;4.13;1.48;;;14.50;99.90;;;;;;6156017;23;20412;-76
2021/12/24 12:38:44;;;;;;;2.65;1.40;;;14.50;99.90;;;;;;6156223;23;20048;-76
2021/12/24 12:41:33;;;;;;;1.98;1.00;;;14.70;99.90;;;;;;6065907;23;20082;-75
2021/12/24 12:44:15;;;;;;;1.73;1.35;;;14.70;99.90;;;;;;6065906;23;20458;-76
2021/12/24 12:46:46;;;;;;;2.63;1.80;;;14.80;99.90;;;;;;6065822;23;20011;-74
2021/12/24 12:49:20;;;;;;;2.15;1.45;;;14.80;99.90;;;;;;6065920;23;20014;-74
2021/12/24 12:51:55;;;;;;;3.10;1.60;;;14.70;99.90;;;;;;6066345;23;20014;-74
2021/12/24 12:54:46;;;;;;;4.75;1.80;;;14.60;99.90;;;;;;6041907;23;20495;-74
2021/12/24 12:57:20;;;;;;;1.95;1.35;;;14.50;99.90;;;;;;6041806;23;20007;-74
2021/12/24 13:00:07;;;;;;;1.98;1.13;;;14.40;99.90;;;;;;6066268;23;20103;-74
2021/12/24 13:05:31;;;;;;;3.85;1.75;;;14.30;99.90;;;;;;6065599;23;20018;-74
2021/12/24 13:08:09;;;;;;;2.40;1.40;;;14.30;99.90;;;;;;6065649;23;20094;-73
2021/12/24 13:10:36;;;;;;;1.42;1.20;;;14.20;99.90;;;;;;6066086;23;20041;-74
2021/12/24 13:13:05;;;;;;;1.55;1.40;;;14.10;99.90;;;;;;6065805;23;20017;-73
2021/12/24 13:15:42;;;;;;;14.23;5.07;;;14.00;99.90;;;;;;6068303;23;20015;-73
2021/12/24 13:18:26;;;;;;;19.65;6.35;;;14.00;99.90;;;;;;6155691;23;20017;-73
2021/12/24 13:23:32;;;;;;;8.68;4.57;;;14.00;99.90;;;;;;6157411;23;20056;-73
2021/12/24 13:26:15;;;;;;;13.18;4.80;;;14.00;99.90;;;;;;6157154;23;20010;-73
2021/12/24 13:28:57;;;;;;;9.05;3.80;;;14.00;99.90;;;;;;6157389;23;20009;-73
2021/12/24 13:31:24;;;;;;;8.63;4.18;;;14.00;99.90;;;;;;6157293;23;20032;-74
2021/12/24 13:33:50;;;;;;;9.02;3.60;;;14.00;99.90;;;;;;6155664;23;20005;-73
2021/12/24 13:36:23;;;;;;;14.82;5.72;;;13.90;99.90;;;;;;6157308;23;20413;-73
2021/12/24 13:38:50;;;;;;;22.70;6.97;;;13.80;99.90;;;;;;6157366;23;20009;-73
2021/12/24 13:41:17;;;;;;;10.98;3.65;;;13.80;99.90;;;;;;6155770;23;20060;-73
2021/12/24 13:43:43;;;;;;;12.73;4.50;;;13.70;99.90;;;;;;6157052;23;20022;-73
2021/12/24 13:46:13;;;;;;;5.65;2.55;;;13.70;99.90;;;;;;6157198;23;20006;-72
2021/12/24 13:49:23;;;;;;;9.95;3.75;;;13.60;99.90;;;;;;6157267;23;20039;-72
2021/12/24 13:54:33;;;;;;;7.32;3.67;;;13.60;99.90;;;;;;6157102;23;20086;-72
2021/12/24 13:57:03;;;;;;;3.65;2.28;;;13.60;99.90;;;;;;6157111;23;20009;-73
2021/12/24 13:59:31;;;;;;;5.97;2.60;;;13.50;99.90;;;;;;6157543;23;20005;-73
2021/12/24 14:01:58;;;;;;;6.47;3.88;;;13.60;99.90;;;;;;6157365;23;20076;-76
2021/12/24 14:04:24;;;;;;;5.22;3.22;;;13.60;99.90;;;;;;6157087;23;20466;-73
2021/12/24 14:06:55;;;;;;;5.82;3.28;;;13.60;99.90;;;;;;6155470;23;20008;-72
2021/12/24 14:09:27;;;;;;;5.00;2.35;;;13.50;99.90;;;;;;6157121;23;20024;-72
2021/12/24 14:11:54;;;;;;;4.32;2.08;;;13.50;99.90;;;;;;6156997;23;20030;-74
2021/12/24 14:14:27;;;;;;;3.22;2.08;;;13.50;99.90;;;;;;6155195;23;20017;-72
2021/12/24 14:22:27;;;;;;;2.97;2.28;;;13.20;99.90;;;;;;6156804;23;20447;-73
2021/12/24 14:24:59;;;;;;;3.22;2.28;;;13.20;99.90;;;;;;6157072;23;20040;-73
2021/12/24 14:27:29;;;;;;;3.17;2.40;;;13.10;99.90;;;;;;6157020;23;20014;-73
2021/12/24 14:30:00;;;;;;;5.80;2.38;;;13.00;99.90;;;;;;6156533;23;20045;-73
2021/12/24 14:32:42;;;;;;;4.63;2.20;;;13.00;99.90;;;;;;6156851;23;20024;-73
2021/12/24 14:35:30;;;;;;;6.55;2.92;;;13.00;99.90;;;;;;6156496;23;20503;-73
2021/12/24 14:38:14;;;;;;;6.72;2.50;;;12.90;99.90;;;;;;6156661;23;20088;-73
2021/12/24 14:40:41;;;;;;;3.85;2.75;;;12.90;99.90;;;;;;6156802;23;20044;-73
2021/12/24 14:43:17;;;;;;;5.13;2.90;;;12.80;99.90;;;;;;6157074;23;20059;-73
2021/12/24 14:45:49;;;;;;;4.65;3.05;;;12.80;99.90;;;;;;6156953;23;20005;-74
2021/12/24 14:48:26;;;;;;;5.75;2.97;;;12.70;99.90;;;;;;6156543;23;20005;-73
2021/12/24 14:51:06;;;;;;;5.80;2.88;;;12.60;99.90;;;;;;6156861;23;20013;-73
2021/12/24 14:53:48;;;;;;;7.57;3.22;;;12.60;99.90;;;;;;6156535;23;20009;-73
2021/12/24 14:56:22;;;;;;;6.95;2.78;;;12.50;99.90;;;;;;6157031;23;20010;-73
2021/12/24 14:58:59;;;;;;;2.85;2.20;;;12.50;99.90;;;;;;6157182;23;20012;-74
2021/12/24 15:01:29;;;;;;;6.88;3.28;;;12.40;99.90;;;;;;6156575;23;20020;-73